Time;durP1;ratioP1;P1;durP2;ratioP2;P2;SDS_P1;SDS_P2;PMS_P1;PMS_P2;Temp;Humidity;BMP_temperature;BMP_pressure;BME280_temperature;BME280_humidity;BME280_pressure;Samples;Min_cycle;Max_cycle;Signal;HPM_P1;HPM_P2
2021/10/01 00:01:54;;;;;;;4.23;1.60;;;11.90;99.90;;;;;;5027311;28;20778;-73
2021/10/01 00:04:23;;;;;;;5.33;1.53;;;11.90;99.90;;;;;;5029133;28;20239;-74
2021/10/01 00:06:51;;;;;;;4.43;1.57;;;12.00;99.90;;;;;;5028648;28;20269;-74
2021/10/01 00:09:19;;;;;;;2.93;1.23;;;12.00;99.90;;;;;;5029627;28;20235;-74
2021/10/01 00:11:51;;;;;;;4.67;1.73;;;12.00;99.90;;;;;;5028170;28;20231;-73
2021/10/01 00:14:20;;;;;;;5.13;1.70;;;12.00;99.90;;;;;;5028947;28;20247;-74
2021/10/01 00:16:49;;;;;;;6.23;1.30;;;12.10;99.90;;;;;;5027641;28;20286;-73
2021/10/01 00:19:18;;;;;;;3.47;1.20;;;12.10;99.90;;;;;;5018862;28;20230;-74
2021/10/01 00:21:46;;;;;;;7.33;1.60;;;12.10;99.90;;;;;;5027152;28;20372;-73
2021/10/01 00:24:15;;;;;;;5.43;1.50;;;12.10;99.90;;;;;;5015462;28;20240;-71
2021/10/01 00:26:43;;;;;;;3.63;1.27;;;12.20;99.90;;;;;;5026304;28;20247;-74
2021/10/01 00:29:12;;;;;;;5.17;1.57;;;12.20;99.90;;;;;;5027121;28;20232;-73
2021/10/01 00:31:41;;;;;;;2.63;1.40;;;12.20;99.90;;;;;;5027626;28;20347;-73
2021/10/01 00:34:10;;;;;;;3.97;1.40;;;12.20;99.90;;;;;;5028636;28;20623;-73
2021/10/01 00:36:38;;;;;;;4.70;1.30;;;12.20;99.90;;;;;;5031328;28;20249;-74
2021/10/01 00:39:07;;;;;;;6.63;1.60;;;12.20;99.90;;;;;;5025243;28;20243;-74
2021/10/01 00:41:37;;;;;;;5.03;1.50;;;12.20;99.90;;;;;;5041915;28;20318;-74
2021/10/01 00:44:08;;;;;;;5.40;2.00;;;12.30;99.90;;;;;;5028356;28;20274;-74
2021/10/01 00:46:36;;;;;;;3.93;1.50;;;12.30;99.90;;;;;;5027289;28;20242;-73
2021/10/01 00:49:05;;;;;;;5.43;1.50;;;12.30;99.90;;;;;;5028801;28;20237;-74
2021/10/01 00:51:39;;;;;;;4.00;1.60;;;12.20;99.90;;;;;;5025926;28;20389;-74
2021/10/01 00:54:09;;;;;;;4.23;1.90;;;12.30;99.90;;;;;;5026876;28;20729;-74
2021/10/01 00:56:38;;;;;;;5.97;1.80;;;12.30;99.90;;;;;;5032525;28;20254;-73
2021/10/01 00:59:06;;;;;;;4.80;1.70;;;12.30;99.90;;;;;;5026989;28;20304;-73
2021/10/01 01:01:34;;;;;;;3.13;1.30;;;12.30;99.90;;;;;;5026015;28;20285;-74
2021/10/01 01:04:07;;;;;;;4.70;1.33;;;12.30;99.90;;;;;;5026460;28;20316;-74
2021/10/01 01:06:45;;;;;;;2.87;1.30;;;12.30;99.90;;;;;;5025556;28;20292;-75
2021/10/01 01:09:34;;;;;;;3.27;1.30;;;12.30;99.90;;;;;;5027581;28;20250;-73
2021/10/01 01:12:22;;;;;;;4.03;1.50;;;12.30;99.90;;;;;;5042188;28;20732;-74
2021/10/01 01:14:55;;;;;;;4.47;1.57;;;12.30;99.90;;;;;;5027509;28;20237;-73
2021/10/01 01:17:28;;;;;;;3.97;1.40;;;12.30;99.90;;;;;;5025955;28;20236;-74
2021/10/01 01:20:08;;;;;;;6.20;1.53;;;12.30;99.90;;;;;;5032243;28;20243;-74
2021/10/01 01:22:48;;;;;;;4.07;1.70;;;12.30;99.90;;;;;;5025213;28;20670;-74
2021/10/01 01:25:43;;;;;;;4.93;1.50;;;12.40;99.90;;;;;;5026460;28;20275;-74
2021/10/01 01:28:14;;;;;;;4.50;1.37;;;12.40;99.90;;;;;;5020791;28;20266;-73
2021/10/01 01:30:46;;;;;;;3.83;1.30;;;12.40;99.90;;;;;;5017366;28;20599;-74
2021/10/01 01:33:21;;;;;;;4.57;1.40;;;12.40;99.90;;;;;;5025229;28;20614;-75
2021/10/01 01:35:53;;;;;;;2.87;1.30;;;12.40;99.90;;;;;;5038170;28;20923;-75
2021/10/01 01:38:27;;;;;;;3.30;1.30;;;12.40;99.90;;;;;;5026185;28;20246;-75
2021/10/01 01:40:58;;;;;;;2.80;1.10;;;12.40;99.90;;;;;;5035983;28;20231;-74
2021/10/01 01:43:28;;;;;;;8.00;1.40;;;12.40;99.90;;;;;;5025484;28;20227;-72
2021/10/01 01:45:57;;;;;;;6.03;1.30;;;12.40;99.90;;;;;;5031206;28;20399;-75
2021/10/01 01:48:27;;;;;;;4.40;1.30;;;12.40;99.90;;;;;;5016725;28;20239;-74
2021/10/01 01:50:57;;;;;;;4.17;1.33;;;12.40;99.90;;;;;;5018295;28;20641;-74
2021/10/01 01:53:27;;;;;;;3.63;1.70;;;12.40;99.90;;;;;;5038696;28;20800;-72
2021/10/01 01:55:57;;;;;;;4.43;1.67;;;12.40;99.90;;;;;;5024494;28;20240;-73
2021/10/01 01:58:26;;;;;;;4.73;1.57;;;12.40;99.90;;;;;;5027154;28;20548;-74
2021/10/01 02:01:13;;;;;;;3.77;1.10;;;12.40;99.90;;;;;;5024632;28;20752;-75
2021/10/01 02:04:02;;;;;;;4.40;1.50;;;12.40;99.90;;;;;;5025006;28;20234;-74
2021/10/01 02:06:32;;;;;;;3.97;1.30;;;12.40;99.90;;;;;;5023726;28;20312;-75
2021/10/01 02:09:01;;;;;;;4.63;1.30;;;12.40;99.90;;;;;;5041908;28;20235;-74
2021/10/01 02:11:31;;;;;;;5.40;1.20;;;12.30;99.90;;;;;;5014034;28;20234;-75
2021/10/01 02:14:02;;;;;;;4.10;1.40;;;12.40;99.90;;;;;;5041209;28;20257;-74
2021/10/01 02:16:31;;;;;;;2.27;1.10;;;12.40;99.90;;;;;;5035979;28;20257;-75
2021/10/01 02:19:02;;;;;;;2.83;1.37;;;12.30;99.90;;;;;;5026461;28;20660;-74
2021/10/01 02:21:33;;;;;;;6.03;1.20;;;12.30;99.90;;;;;;5022951;28;20269;-75
2021/10/01 02:24:02;;;;;;;3.80;1.40;;;12.40;99.90;;;;;;5021290;28;20293;-73
2021/10/01 02:26:35;;;;;;;2.67;1.10;;;12.40;99.90;;;;;;5039782;28;20251;-75
2021/10/01 02:29:10;;;;;;;4.60;1.67;;;12.30;99.90;;;;;;5015617;28;20250;-75
2021/10/01 02:31:52;;;;;;;4.37;1.30;;;12.40;99.90;;;;;;5038949;28;20292;-74
2021/10/01 02:34:30;;;;;;;4.57;1.50;;;12.30;99.90;;;;;;5031066;28;20722;-75
2021/10/01 02:36:59;;;;;;;3.23;1.50;;;12.30;99.90;;;;;;5013105;28;20256;-74
2021/10/01 02:39:29;;;;;;;4.53;1.30;;;12.30;99.90;;;;;;5031779;28;20296;-75
2021/10/01 02:41:57;;;;;;;2.20;1.27;;;12.30;99.90;;;;;;5040474;28;20236;-75
2021/10/01 02:44:25;;;;;;;3.37;1.37;;;12.30;99.90;;;;;;5039906;28;20623;-75
2021/10/01 02:46:54;;;;;;;5.77;1.67;;;12.30;99.90;;;;;;5041204;28;20260;-75
2021/10/01 02:49:23;;;;;;;3.50;1.50;;;12.30;99.90;;;;;;5041749;28;20488;-75
2021/10/01 02:51:58;;;;;;;2.67;1.27;;;12.30;99.90;;;;;;5040151;28;20281;-75
2021/10/01 02:54:33;;;;;;;4.30;1.33;;;12.30;99.90;;;;;;5024250;28;20234;-73
2021/10/01 02:57:12;;;;;;;2.73;1.40;;;12.30;99.90;;;;;;5025540;28;20230;-74
2021/10/01 02:59:43;;;;;;;6.87;2.23;;;12.30;99.90;;;;;;5015747;28;20245;-74
2021/10/01 03:02:12;;;;;;;4.03;1.63;;;12.20;99.90;;;;;;5032413;28;20244;-74
2021/10/01 03:04:46;;;;;;;4.50;1.40;;;12.30;99.90;;;;;;5038943;28;20584;-74
2021/10/01 03:07:16;;;;;;;3.70;1.40;;;12.20;99.90;;;;;;5030878;28;20238;-75
2021/10/01 03:09:48;;;;;;;6.63;1.40;;;12.20;99.90;;;;;;5013444;28;20250;-76
2021/10/01 03:12:19;;;;;;;4.30;1.47;;;12.20;99.90;;;;;;5030696;28;20326;-74
2021/10/01 03:14:49;;;;;;;3.13;1.40;;;12.20;99.90;;;;;;5040608;28;20236;-75
2021/10/01 03:17:18;;;;;;;3.30;1.40;;;12.20;99.90;;;;;;5026026;28;20238;-74
2021/10/01 03:19:49;;;;;;;4.13;1.30;;;12.20;99.90;;;;;;5032689;28;20624;-75
2021/10/01 03:22:18;;;;;;;3.90;1.47;;;12.20;99.90;;;;;;5038621;28;20639;-74
2021/10/01 03:24:47;;;;;;;3.73;1.30;;;12.20;99.90;;;;;;5040386;28;20768;-74
2021/10/01 03:27:20;;;;;;;4.00;1.20;;;12.10;99.90;;;;;;5029401;28;20261;-75
2021/10/01 03:29:48;;;;;;;4.87;1.40;;;12.10;99.90;;;;;;5040538;28;20233;-75
2021/10/01 03:32:22;;;;;;;5.40;1.40;;;12.10;99.90;;;;;;5030521;28;20243;-73
2021/10/01 03:34:52;;;;;;;4.23;1.23;;;12.10;99.90;;;;;;5044351;28;20706;-74
2021/10/01 03:37:21;;;;;;;3.23;1.20;;;12.10;99.90;;;;;;5028700;28;20240;-75
2021/10/01 03:39:57;;;;;;;3.87;1.43;;;12.10;99.90;;;;;;5030849;28;20329;-76
2021/10/01 03:42:26;;;;;;;3.37;1.40;;;12.10;99.90;;;;;;5042914;28;20235;-74
2021/10/01 03:44:54;;;;;;;3.93;1.50;;;12.10;99.90;;;;;;5044399;28;20729;-75
2021/10/01 03:47:23;;;;;;;2.67;1.30;;;12.10;99.90;;;;;;5039170;28;20238;-75
2021/10/01 03:49:53;;;;;;;2.93;1.37;;;12.00;99.90;;;;;;5029382;28;20317;-76
2021/10/01 03:52:21;;;;;;;4.03;1.50;;;12.10;99.90;;;;;;5028570;28;20246;-74
2021/10/01 03:54:51;;;;;;;4.33;1.30;;;12.00;99.90;;;;;;5028163;28;20314;-75
2021/10/01 03:57:19;;;;;;;6.17;1.20;;;12.00;99.90;;;;;;5032390;28;20237;-75
2021/10/01 03:59:48;;;;;;;3.63;1.30;;;12.00;99.90;;;;;;5027579;28;20615;-73
2021/10/01 04:02:16;;;;;;;3.87;1.40;;;12.10;99.90;;;;;;5041389;28;20245;-74
2021/10/01 04:04:44;;;;;;;2.63;1.30;;;12.00;99.90;;;;;;5038672;28;20645;-75
2021/10/01 04:07:14;;;;;;;3.20;1.30;;;12.00;99.90;;;;;;5043528;28;20650;-75
2021/10/01 04:09:42;;;;;;;4.37;1.20;;;12.00;99.90;;;;;;5027228;28;20247;-74
2021/10/01 04:12:10;;;;;;;4.67;1.40;;;12.00;99.90;;;;;;5019283;28;20294;-74
2021/10/01 04:14:38;;;;;;;4.37;1.30;;;12.00;99.90;;;;;;5018357;28;20843;-73
2021/10/01 04:17:07;;;;;;;4.83;1.50;;;11.90;99.90;;;;;;5033556;28;20247;-74
2021/10/01 04:19:35;;;;;;;4.07;1.13;;;11.90;99.90;;;;;;5041984;28;20250;-75
2021/10/01 04:22:06;;;;;;;3.07;1.33;;;11.90;99.90;;;;;;5024433;28;23548;-74
2021/10/01 04:24:55;;;;;;;6.73;1.50;;;11.90;99.90;;;;;;5023807;28;20243;-75
2021/10/01 04:27:23;;;;;;;4.33;1.50;;;12.00;99.90;;;;;;5033862;28;20647;-74
2021/10/01 04:29:52;;;;;;;3.57;1.10;;;12.00;99.90;;;;;;5036798;28;20313;-75
2021/10/01 04:32:22;;;;;;;3.57;1.60;;;12.00;99.90;;;;;;5042213;28;20249;-74
2021/10/01 04:35:00;;;;;;;3.03;1.50;;;12.00;99.90;;;;;;5027840;28;20325;-74
2021/10/01 04:37:28;;;;;;;3.80;1.40;;;11.90;99.90;;;;;;5043047;28;20716;-75
2021/10/01 04:40:00;;;;;;;3.80;1.20;;;11.90;99.90;;;;;;5043537;28;20248;-75
2021/10/01 04:42:29;;;;;;;4.57;1.40;;;12.00;99.90;;;;;;5038852;28;20804;-75
2021/10/01 04:44:57;;;;;;;7.00;1.30;;;12.00;99.90;;;;;;5042413;28;20751;-74
2021/10/01 04:47:25;;;;;;;4.17;1.20;;;12.00;99.90;;;;;;5036942;28;20232;-72
2021/10/01 04:49:53;;;;;;;3.90;1.30;;;12.00;99.90;;;;;;5018535;28;20261;-74
2021/10/01 04:52:22;;;;;;;3.70;1.20;;;12.00;99.90;;;;;;5034062;28;20246;-75
2021/10/01 04:54:50;;;;;;;4.40;1.57;;;12.00;99.90;;;;;;5042988;28;20243;-74
2021/10/01 04:57:19;;;;;;;3.30;1.27;;;12.00;99.90;;;;;;5042344;28;20239;-73
2021/10/01 05:00:09;;;;;;;3.57;1.10;;;11.90;99.90;;;;;;5025280;28;20230;-74
2021/10/01 05:02:56;;;;;;;4.13;1.30;;;12.00;99.90;;;;;;5020054;28;20720;-75
2021/10/01 05:05:31;;;;;;;4.17;1.43;;;11.90;99.90;;;;;;5040782;28;20241;-74
2021/10/01 05:08:22;;;;;;;2.20;1.20;;;11.90;99.90;;;;;;5027561;28;20244;-75
2021/10/01 05:11:08;;;;;;;4.30;1.17;;;12.00;99.90;;;;;;5017956;28;20611;-74
2021/10/01 05:13:56;;;;;;;5.30;1.20;;;12.00;99.90;;;;;;5027339;28;20242;-74
2021/10/01 05:16:45;;;;;;;2.47;1.40;;;11.90;99.90;;;;;;5023534;28;20241;-74
2021/10/01 05:19:34;;;;;;;2.53;1.17;;;11.90;99.90;;;;;;5023725;28;20240;-74
2021/10/01 05:22:25;;;;;;;4.63;1.10;;;12.00;99.90;;;;;;5018608;28;20235;-74
2021/10/01 05:24:53;;;;;;;2.50;1.10;;;12.00;99.90;;;;;;5049935;28;20233;-75
2021/10/01 05:27:21;;;;;;;4.07;1.10;;;11.90;99.90;;;;;;5027749;28;20231;-75
2021/10/01 05:29:51;;;;;;;5.30;1.33;;;11.90;99.90;;;;;;5022939;28;20299;-74
2021/10/01 05:32:19;;;;;;;4.50;1.20;;;11.90;99.90;;;;;;5022254;28;20718;-74
2021/10/01 05:34:48;;;;;;;3.43;1.23;;;11.90;99.90;;;;;;5023604;28;20247;-74
2021/10/01 05:37:16;;;;;;;3.10;1.40;;;11.90;99.90;;;;;;5018442;28;20234;-70
2021/10/01 05:39:45;;;;;;;5.00;1.17;;;11.90;99.90;;;;;;5018143;28;21061;-69
2021/10/01 05:42:13;;;;;;;6.30;1.53;;;11.80;99.90;;;;;;5021783;28;20669;-69
2021/10/01 05:44:41;;;;;;;4.03;1.20;;;11.70;99.90;;;;;;5020449;28;20253;-68
2021/10/01 05:47:29;;;;;;;4.97;1.80;;;11.80;99.90;;;;;;5017440;28;20247;-68
2021/10/01 05:50:22;;;;;;;3.00;1.10;;;11.90;99.90;;;;;;5017080;28;20581;-68
2021/10/01 05:53:24;;;;;;;3.17;1.30;;;11.90;99.90;;;;;;5026058;28;20296;-68
2021/10/01 05:56:13;;;;;;;3.00;0.97;;;11.90;99.90;;;;;;5022756;28;20240;-68
2021/10/01 05:59:11;;;;;;;3.27;1.07;;;12.00;99.90;;;;;;5025310;28;20714;-69
2021/10/01 06:01:40;;;;;;;4.03;1.10;;;12.00;99.90;;;;;;5037342;28;20602;-69
2021/10/01 06:04:10;;;;;;;3.03;1.10;;;12.00;99.90;;;;;;5025603;28;20777;-68
2021/10/01 06:06:39;;;;;;;4.33;1.27;;;12.00;99.90;;;;;;5021762;28;20264;-68
2021/10/01 06:09:10;;;;;;;3.57;1.27;;;12.00;99.90;;;;;;5023923;28;20230;-68
2021/10/01 06:11:39;;;;;;;5.07;1.27;;;12.00;99.90;;;;;;5024081;28;20334;-68
2021/10/01 06:14:09;;;;;;;1.73;1.10;;;12.10;99.90;;;;;;5022641;28;20235;-69
2021/10/01 06:16:37;;;;;;;4.93;1.30;;;12.10;99.90;;;;;;5023836;28;20287;-68
2021/10/01 06:19:05;;;;;;;5.17;1.50;;;12.10;99.90;;;;;;5021609;28;20673;-69
2021/10/01 06:21:35;;;;;;;2.23;1.30;;;12.10;99.90;;;;;;5021010;28;20325;-68
2021/10/01 06:24:03;;;;;;;4.13;1.20;;;12.10;99.90;;;;;;5024124;28;20246;-68
2021/10/01 06:26:31;;;;;;;4.43;1.40;;;12.10;99.90;;;;;;5020930;28;20270;-68
2021/10/01 06:28:59;;;;;;;1.50;1.00;;;12.10;99.90;;;;;;5020095;28;22506;-68
2021/10/01 06:31:27;;;;;;;6.10;1.57;;;12.10;99.90;;;;;;5019452;28;20708;-68
2021/10/01 06:33:56;;;;;;;4.67;1.70;;;12.20;99.90;;;;;;5023673;28;20237;-68
2021/10/01 06:36:24;;;;;;;3.27;1.10;;;12.20;99.90;;;;;;5022309;28;20710;-68
2021/10/01 06:38:54;;;;;;;4.47;1.40;;;12.20;99.90;;;;;;5024098;28;20266;-68
2021/10/01 06:41:22;;;;;;;2.87;1.20;;;12.20;99.90;;;;;;5024811;28;20354;-68
2021/10/01 06:43:57;;;;;;;4.07;1.40;;;12.30;99.90;;;;;;5018977;28;20253;-69
2021/10/01 06:46:31;;;;;;;4.33;1.57;;;12.30;99.90;;;;;;5023449;28;20240;-68
2021/10/01 06:49:10;;;;;;;4.17;1.13;;;12.30;99.90;;;;;;5024558;28;20266;-68
2021/10/01 07:36:59;;;;;;;4.07;1.13;;;12.70;99.90;;;;;;5021179;28;20297;-66
2021/10/01 08:19:18;;;;;;;4.17;1.23;;;14.20;99.90;;;;;;4983105;28;20241;-69
2021/10/01 08:21:47;;;;;;;4.87;1.23;;;14.30;99.90;;;;;;4982298;28;20808;-68
2021/10/01 08:24:16;;;;;;;4.47;1.90;;;14.30;99.90;;;;;;4987806;28;20900;-69
2021/10/01 08:26:46;;;;;;;4.23;1.33;;;14.50;99.90;;;;;;4984671;28;20268;-68
2021/10/01 08:29:14;;;;;;;3.97;1.37;;;14.60;99.90;;;;;;4985059;28;20300;-68
2021/10/01 08:31:43;;;;;;;6.20;1.43;;;14.70;99.90;;;;;;4984492;28;20236;-66
2021/10/01 08:34:13;;;;;;;3.07;0.87;;;14.60;99.90;;;;;;4988337;28;20255;-66
2021/10/01 08:36:42;;;;;;;3.00;1.13;;;14.60;99.90;;;;;;4983929;28;20694;-66
2021/10/01 08:39:13;;;;;;;5.17;1.20;;;14.90;99.90;;;;;;4984745;28;20715;-66
2021/10/01 08:41:44;;;;;;;3.70;1.50;;;15.10;99.90;;;;;;4969115;28;20454;-67
2021/10/01 08:44:12;;;;;;;4.23;1.47;;;15.30;99.90;;;;;;4987548;28;20242;-66
2021/10/01 08:46:40;;;;;;;2.63;1.23;;;15.50;99.90;;;;;;4970942;28;20567;-67
2021/10/01 08:49:09;;;;;;;6.47;1.27;;;15.60;99.90;;;;;;4974370;28;20702;-67
2021/10/01 08:51:40;;;;;;;3.97;1.30;;;15.60;99.90;;;;;;4978966;28;20332;-67
2021/10/01 08:54:08;;;;;;;3.90;1.40;;;15.60;99.90;;;;;;4985285;28;20245;-66
2021/10/01 08:56:36;;;;;;;5.90;1.40;;;15.70;99.90;;;;;;4976213;28;20663;-66
2021/10/01 08:59:05;;;;;;;3.93;1.50;;;15.80;99.90;;;;;;4980241;28;20258;-66
2021/10/01 09:01:34;;;;;;;3.77;1.13;;;15.90;99.90;;;;;;4978692;28;20233;-66
2021/10/01 09:04:04;;;;;;;3.93;1.20;;;15.90;99.90;;;;;;4972301;28;20245;-67
2021/10/01 09:06:33;;;;;;;3.77;1.50;;;16.10;99.90;;;;;;4972042;28;20265;-66
2021/10/01 09:09:05;;;;;;;2.87;1.20;;;16.30;99.90;;;;;;4974013;28;20822;-66
2021/10/01 09:11:35;;;;;;;1.93;1.20;;;16.40;99.90;;;;;;4975578;28;20238;-67
2021/10/01 09:14:06;;;;;;;4.17;1.50;;;16.60;99.90;;;;;;4973446;28;20593;-67
2021/10/01 09:16:35;;;;;;;3.43;1.63;;;16.60;99.90;;;;;;4975557;28;20241;-66
2021/10/01 09:19:04;;;;;;;5.80;1.70;;;16.60;99.90;;;;;;4979970;28;20315;-66
2021/10/01 09:21:41;;;;;;;5.63;1.90;;;16.80;99.90;;;;;;4977706;28;20246;-67
2021/10/01 09:24:13;;;;;;;4.50;1.47;;;16.80;99.90;;;;;;4987019;28;20307;-65
2021/10/01 09:26:49;;;;;;;3.03;1.27;;;16.90;99.90;;;;;;4985509;28;20721;-67
2021/10/01 09:29:26;;;;;;;6.80;1.40;;;16.80;99.90;;;;;;4983662;28;20238;-65
2021/10/01 09:31:56;;;;;;;3.37;1.20;;;16.90;99.90;;;;;;4976369;28;20244;-66
2021/10/01 09:34:36;;;;;;;4.30;1.30;;;17.10;99.90;;;;;;4976908;28;20230;-66
2021/10/01 09:37:07;;;;;;;3.77;1.30;;;17.40;99.90;;;;;;4982454;28;20291;-66
2021/10/01 09:39:39;;;;;;;3.03;1.23;;;17.50;99.90;;;;;;4981410;28;20369;-66
2021/10/01 09:42:15;;;;;;;3.63;1.40;;;17.60;99.90;;;;;;4983143;28;20333;-66
2021/10/01 09:44:46;;;;;;;4.07;1.37;;;17.50;99.90;;;;;;4980776;28;20233;-67
2021/10/01 09:47:16;;;;;;;3.83;1.10;;;17.50;99.90;;;;;;4981995;28;20265;-67
2021/10/01 09:49:44;;;;;;;4.10;1.30;;;17.50;99.90;;;;;;4979909;28;20231;-66
2021/10/01 09:52:14;;;;;;;4.50;1.23;;;17.60;99.90;;;;;;4981719;28;20611;-66
2021/10/01 09:54:43;;;;;;;4.80;1.40;;;17.70;99.90;;;;;;4981207;28;20317;-67
2021/10/01 09:57:13;;;;;;;3.37;1.20;;;17.90;99.90;;;;;;4984471;28;20351;-67
2021/10/01 09:59:42;;;;;;;4.00;1.63;;;18.00;99.90;;;;;;4984630;28;20242;-66
2021/10/01 10:02:12;;;;;;;5.83;1.40;;;17.90;99.90;;;;;;4985090;28;20269;-66
2021/10/01 10:04:43;;;;;;;3.93;1.20;;;17.80;99.90;;;;;;4982855;28;20337;-67
2021/10/01 10:07:13;;;;;;;3.13;1.13;;;17.80;99.90;;;;;;4987697;28;22122;-66
2021/10/01 10:10:08;;;;;;;3.69;0.80;;;17.80;99.90;;;;;;2218094;28;10002715;-67
2021/10/01 10:12:40;;;;;;;4.77;1.10;;;17.80;99.90;;;;;;4294131;28;10001115;-65
2021/10/01 10:15:11;;;;;;;3.20;1.50;;;18.00;99.90;;;;;;4983327;28;20234;-67
2021/10/01 10:17:47;;;;;;;4.47;0.97;;;18.00;99.90;;;;;;4980435;28;20241;-65
2021/10/01 10:20:16;;;;;;;3.03;1.20;;;18.30;99.90;;;;;;4982706;28;20236;-66
2021/10/01 10:22:45;;;;;;;4.17;1.20;;;18.40;99.90;;;;;;4980507;28;20230;-66
2021/10/01 10:25:15;;;;;;;3.63;1.20;;;18.50;99.90;;;;;;4982033;28;20234;-66
2021/10/01 10:27:43;;;;;;;4.17;1.80;;;18.40;99.90;;;;;;4982281;28;20317;-67
2021/10/01 10:30:13;;;;;;;2.67;1.20;;;18.40;99.90;;;;;;4981710;28;20324;-66
2021/10/01 10:32:41;;;;;;;3.07;1.10;;;18.60;99.90;;;;;;4982140;28;20245;-66
2021/10/01 10:35:11;;;;;;;4.00;1.13;;;18.90;99.90;;;;;;4986506;28;20249;-66
2021/10/01 10:37:42;;;;;;;5.40;1.40;;;19.10;99.90;;;;;;4996602;28;20750;-66
2021/10/01 10:40:12;;;;;;;4.57;1.30;;;19.30;99.90;;;;;;4997926;28;20311;-66
2021/10/01 10:42:44;;;;;;;4.97;1.20;;;19.30;99.90;;;;;;4983474;28;20325;-68
2021/10/01 10:45:20;;;;;;;4.57;1.40;;;19.00;99.90;;;;;;4988593;28;20241;-66
2021/10/01 10:47:55;;;;;;;5.87;1.77;;;19.00;99.90;;;;;;4988519;28;20273;-66
2021/10/01 10:50:42;;;;;;;5.70;1.50;;;19.50;99.90;;;;;;4991714;28;20676;-67
2021/10/01 10:53:26;;;;;;;3.37;1.40;;;19.50;99.90;;;;;;4983924;28;20859;-66
2021/10/01 10:56:07;;;;;;;4.73;1.30;;;19.20;99.90;;;;;;4984323;28;20243;-66
2021/10/01 10:58:52;;;;;;;4.43;1.43;;;19.00;99.90;;;;;;4983221;28;20249;-67
2021/10/01 11:01:43;;;;;;;2.70;1.10;;;19.20;99.90;;;;;;4991677;28;20243;-67
2021/10/01 11:04:39;;;;;;;2.17;1.30;;;19.40;99.90;;;;;;4988031;28;20239;-67
2021/10/01 11:07:09;;;;;;;3.27;1.20;;;19.40;99.90;;;;;;4982997;28;20248;-65
2021/10/01 11:09:41;;;;;;;4.80;1.30;;;19.20;99.90;;;;;;4978082;28;20854;-67
2021/10/01 11:12:36;;;;;;;6.00;1.30;;;19.10;99.90;;;;;;4976715;28;20255;-66
2021/10/01 11:15:17;;;;;;;4.07;1.03;;;19.00;99.90;;;;;;4945378;28;20239;-66
2021/10/01 11:18:18;;;;;;;5.20;1.33;;;18.90;99.90;;;;;;4980041;28;20248;-66
2021/10/01 11:20:47;;;;;;;5.77;1.50;;;18.90;99.90;;;;;;4982458;28;20246;-66
2021/10/01 11:23:19;;;;;;;4.70;1.53;;;18.90;99.90;;;;;;4983015;28;20833;-67
2021/10/01 11:25:49;;;;;;;3.67;1.40;;;19.10;99.90;;;;;;4978111;28;20235;-66
2021/10/01 11:28:19;;;;;;;2.60;1.10;;;19.30;99.90;;;;;;4983156;28;20714;-66
2021/10/01 11:30:55;;;;;;;4.10;1.23;;;19.30;99.90;;;;;;4984488;28;20366;-65
2021/10/01 11:33:23;;;;;;;4.53;1.03;;;19.30;99.90;;;;;;4983763;28;20726;-65
2021/10/01 11:35:54;;;;;;;4.37;1.10;;;19.30;99.90;;;;;;4976317;28;20244;-66
2021/10/01 11:38:26;;;;;;;3.00;1.10;;;19.10;99.90;;;;;;4995609;28;20783;-66
2021/10/01 11:41:10;;;;;;;4.23;1.23;;;19.10;99.90;;;;;;4980505;28;20241;-66
2021/10/01 11:43:55;;;;;;;2.87;1.20;;;19.10;99.90;;;;;;4976827;28;20299;-66
2021/10/01 11:46:36;;;;;;;4.17;1.17;;;19.30;99.90;;;;;;4980192;28;20780;-67
2021/10/01 11:49:13;;;;;;;5.33;1.30;;;19.30;99.90;;;;;;4981496;28;20324;-66
2021/10/01 11:51:42;;;;;;;3.43;1.00;;;19.10;99.90;;;;;;4974789;28;20295;-66
2021/10/01 11:54:14;;;;;;;3.53;1.20;;;19.00;99.90;;;;;;4994025;28;20348;-66
2021/10/01 11:56:55;;;;;;;3.13;1.10;;;19.10;99.90;;;;;;4984820;28;20247;-66
2021/10/01 11:59:25;;;;;;;5.23;1.27;;;19.30;99.90;;;;;;4986952;28;20250;-67
2021/10/01 12:01:59;;;;;;;3.93;1.33;;;19.30;99.90;;;;;;4985156;28;20236;-67
2021/10/01 12:04:33;;;;;;;4.60;1.10;;;19.30;99.90;;;;;;4987542;28;20239;-66
2021/10/01 12:07:03;;;;;;;6.30;1.60;;;19.30;99.90;;;;;;4984334;28;20703;-66
2021/10/01 12:09:32;;;;;;;4.07;1.30;;;19.20;99.90;;;;;;4994709;28;20242;-66
2021/10/01 12:12:06;;;;;;;4.93;1.43;;;19.40;99.90;;;;;;4984168;28;20691;-69
2021/10/01 12:14:35;;;;;;;4.93;1.23;;;19.30;99.90;;;;;;4989338;28;20299;-69
2021/10/01 12:17:06;;;;;;;6.03;1.23;;;19.40;99.90;;;;;;4990281;28;20241;-69
2021/10/01 12:19:35;;;;;;;2.67;1.30;;;19.20;99.90;;;;;;4996261;28;20710;-69
2021/10/01 12:22:06;;;;;;;4.67;1.20;;;19.30;99.90;;;;;;4992474;28;20239;-69
2021/10/01 12:24:47;;;;;;;5.27;1.30;;;19.40;99.90;;;;;;4990933;28;20233;-69
2021/10/01 12:27:17;;;;;;;4.63;1.50;;;19.30;99.90;;;;;;4988668;28;20647;-68
2021/10/01 12:29:47;;;;;;;3.20;1.20;;;19.00;99.90;;;;;;4989352;28;20698;-69
2021/10/01 12:32:18;;;;;;;5.43;1.40;;;19.00;99.90;;;;;;4993842;28;20290;-69
2021/10/01 12:34:51;;;;;;;4.50;1.40;;;19.10;99.90;;;;;;4995378;28;20252;-69
2021/10/01 12:37:22;;;;;;;6.03;1.33;;;19.20;99.90;;;;;;4991245;28;20331;-69
2021/10/01 12:39:53;;;;;;;4.63;1.43;;;19.30;99.90;;;;;;4988201;28;20260;-65
2021/10/01 12:42:24;;;;;;;6.30;1.40;;;19.30;99.90;;;;;;4983156;28;20294;-69
2021/10/01 12:45:06;;;;;;;2.20;1.00;;;19.40;99.90;;;;;;4993336;28;20259;-68
2021/10/01 12:47:38;;;;;;;6.30;1.50;;;19.40;99.90;;;;;;4990090;28;20244;-69
2021/10/01 12:50:08;;;;;;;3.80;1.43;;;19.40;99.90;;;;;;4996286;28;20315;-68
2021/10/01 12:52:39;;;;;;;4.50;1.50;;;19.40;99.90;;;;;;4983857;28;20796;-69
2021/10/01 12:55:09;;;;;;;6.23;1.40;;;19.20;99.90;;;;;;4994474;28;20250;-69
2021/10/01 12:57:39;;;;;;;4.73;1.53;;;19.20;99.90;;;;;;4986342;28;20235;-68
2021/10/01 13:00:12;;;;;;;4.37;1.20;;;19.00;99.90;;;;;;4991172;28;20243;-68
2021/10/01 13:02:45;;;;;;;5.50;1.60;;;19.10;99.90;;;;;;4989866;28;20247;-68
2021/10/01 13:05:18;;;;;;;3.03;1.13;;;19.20;99.90;;;;;;4998487;28;20242;-68
2021/10/01 13:07:48;;;;;;;4.10;1.23;;;19.20;99.90;;;;;;4994548;28;20782;-69
2021/10/01 13:10:28;;;;;;;3.30;1.30;;;19.20;99.90;;;;;;4985101;28;20725;-68
2021/10/01 13:12:59;;;;;;;4.03;1.30;;;19.10;99.90;;;;;;4988624;28;20289;-68
2021/10/01 13:15:30;;;;;;;3.60;1.13;;;18.90;99.90;;;;;;4982815;28;20243;-68
2021/10/01 13:18:03;;;;;;;3.57;1.20;;;18.80;99.90;;;;;;4981202;28;20260;-69
2021/10/01 13:20:34;;;;;;;4.57;1.10;;;18.70;99.90;;;;;;4985897;28;20683;-68
2021/10/01 13:23:06;;;;;;;3.83;1.20;;;18.60;99.90;;;;;;4985747;28;20245;-68
2021/10/01 13:25:36;;;;;;;4.20;1.27;;;18.60;99.90;;;;;;4986865;28;20255;-68
2021/10/01 13:28:06;;;;;;;4.10;1.20;;;18.50;99.90;;;;;;4988160;28;20337;-69
2021/10/01 13:30:35;;;;;;;4.13;1.43;;;18.40;99.90;;;;;;4984767;28;20241;-68
2021/10/01 13:33:05;;;;;;;4.27;1.77;;;18.40;99.90;;;;;;4981164;28;20298;-68
2021/10/01 13:35:37;;;;;;;4.90;1.70;;;18.30;99.90;;;;;;4989156;28;20243;-68
2021/10/01 13:38:06;;;;;;;5.93;1.50;;;18.40;99.90;;;;;;4991774;28;20237;-69
2021/10/01 13:40:36;;;;;;;6.17;1.73;;;18.30;99.90;;;;;;4979345;28;20983;-71
2021/10/01 13:43:05;;;;;;;5.77;1.50;;;18.20;99.90;;;;;;4976051;28;20240;-72
2021/10/01 13:45:34;;;;;;;6.53;1.80;;;18.20;99.90;;;;;;4978223;28;20236;-72
2021/10/01 13:48:03;;;;;;;5.10;1.40;;;18.20;99.90;;;;;;4981836;28;20318;-72
2021/10/01 13:50:31;;;;;;;4.40;1.23;;;18.20;99.90;;;;;;4984034;28;20251;-71
2021/10/01 13:53:00;;;;;;;4.37;1.17;;;18.20;99.90;;;;;;4976906;28;20233;-71
2021/10/01 13:55:28;;;;;;;2.77;1.33;;;18.10;99.90;;;;;;4981443;28;20228;-72
2021/10/01 13:57:56;;;;;;;2.80;1.10;;;18.10;99.90;;;;;;4980492;28;20581;-72
2021/10/01 14:00:25;;;;;;;2.30;1.00;;;18.20;99.90;;;;;;4983082;28;20758;-72
2021/10/01 14:02:54;;;;;;;4.97;1.00;;;18.30;99.90;;;;;;4990887;28;20330;-73
2021/10/01 14:05:23;;;;;;;3.20;1.20;;;18.30;99.90;;;;;;4993832;28;20240;-72
2021/10/01 14:07:52;;;;;;;4.60;1.07;;;18.30;99.90;;;;;;4986790;28;20239;-72
2021/10/01 14:10:24;;;;;;;5.17;1.10;;;18.20;99.90;;;;;;4988331;28;20299;-72
2021/10/01 14:12:53;;;;;;;5.27;1.70;;;18.20;99.90;;;;;;4983042;28;20234;-72
2021/10/01 14:15:24;;;;;;;3.97;1.27;;;18.10;99.90;;;;;;4985763;28;20329;-72
2021/10/01 14:17:52;;;;;;;6.83;1.20;;;18.00;99.90;;;;;;4989704;28;20256;-72
2021/10/01 14:20:25;;;;;;;3.93;1.30;;;17.80;99.90;;;;;;4997938;28;20244;-72
2021/10/01 14:22:54;;;;;;;5.43;1.20;;;17.50;99.90;;;;;;4988863;28;20753;-71
2021/10/01 14:25:24;;;;;;;7.73;1.33;;;17.40;99.90;;;;;;4995682;28;20231;-72
2021/10/01 14:27:56;;;;;;;4.43;1.20;;;17.20;99.90;;;;;;4982986;28;20233;-72
2021/10/01 14:30:28;;;;;;;3.57;1.20;;;17.10;99.90;;;;;;4983592;28;20252;-72
2021/10/01 14:32:57;;;;;;;3.83;1.10;;;17.00;99.90;;;;;;4986399;28;20375;-72
2021/10/01 14:35:37;;;;;;;5.53;1.40;;;17.00;99.90;;;;;;4982440;28;20247;-72
2021/10/01 14:38:10;;;;;;;2.53;1.20;;;16.90;99.90;;;;;;4989928;28;20225;-72